Time;durP1;ratioP1;P1;durP2;ratioP2;P2;SDS_P1;SDS_P2;PMS_P1;PMS_P2;Temp;Humidity;BMP_temperature;BMP_pressure;BME280_temperature;BME280_humidity;BME280_pressure;Samples;Min_cycle;Max_cycle;Signal;HPM_P1;HPM_P2
2023/12/01 00:02:21;;;;;;;36.33;24.65;;;;;;;2.43;100.00;100276.50;5261351;28;20502;-79
2023/12/01 00:04:53;;;;;;;34.72;23.15;;;;;;;2.61;100.00;100292.63;5261983;28;20025;-77
2023/12/01 00:07:25;;;;;;;32.22;22.42;;;;;;;2.48;100.00;100286.56;5261405;28;20421;-79
2023/12/01 00:09:56;;;;;;;33.85;23.33;;;;;;;2.56;100.00;100300.69;5262473;28;20048;-77
2023/12/01 00:12:28;;;;;;;34.47;23.80;;;;;;;2.52;100.00;100306.97;5245283;28;20040;-78
2023/12/01 00:15:00;;;;;;;34.53;24.10;;;;;;;2.40;100.00;100297.34;5244133;28;20049;-78
2023/12/01 00:17:32;;;;;;;34.90;23.33;;;;;;;2.43;100.00;100307.53;5260982;28;20033;-80
2023/12/01 00:20:05;;;;;;;36.15;23.58;;;;;;;2.43;100.00;100307.53;5258744;28;20024;-79
2023/12/01 00:22:37;;;;;;;32.13;22.13;;;;;;;2.48;100.00;100309.81;5261227;28;20032;-79
2023/12/01 00:25:09;;;;;;;34.00;23.60;;;;;;;2.47;100.00;100306.41;5259833;28;20035;-77
2023/12/01 00:27:41;;;;;;;35.95;22.25;;;;;;;2.40;100.00;100305.94;5258284;28;20041;-78
2023/12/01 00:30:13;;;;;;;37.03;23.33;;;;;;;2.36;100.00;100311.38;5262351;28;20028;-78
2023/12/01 00:32:45;;;;;;;36.45;24.08;;;;;;;2.35;100.00;100313.16;5262602;28;20094;-79
2023/12/01 00:35:16;;;;;;;34.60;23.75;;;;;;;2.35;100.00;100314.88;5260020;28;20047;-79
2023/12/01 00:37:48;;;;;;;37.70;23.08;;;;;;;2.33;100.00;100314.97;5259565;28;20070;-78
2023/12/01 00:40:20;;;;;;;36.05;23.85;;;;;;;2.40;100.00;100312.88;5260391;28;20041;-77
2023/12/01 00:42:52;;;;;;;36.13;24.30;;;;;;;2.40;100.00;100313.69;5260610;28;20036;-78
2023/12/01 00:45:24;;;;;;;35.33;24.00;;;;;;;2.36;100.00;100312.22;5262888;28;20709;-78
2023/12/01 00:47:56;;;;;;;37.20;24.70;;;;;;;2.38;100.00;100319.88;5259571;28;20032;-78
2023/12/01 00:50:28;;;;;;;37.67;24.38;;;;;;;2.35;100.00;100327.78;5258074;28;20483;-78
2023/12/01 00:53:00;;;;;;;34.38;21.88;;;;;;;2.25;100.00;100306.03;5242750;28;20041;-79
2023/12/01 00:55:31;;;;;;;36.05;23.52;;;;;;;2.33;100.00;100327.91;5261565;28;20044;-78
2023/12/01 00:58:03;;;;;;;33.88;22.00;;;;;;;2.21;100.00;100323.44;5264799;28;20033;-79
2023/12/01 01:00:35;;;;;;;38.20;23.52;;;;;;;2.21;100.00;100330.38;5263213;28;20032;-77
2023/12/01 01:03:07;;;;;;;35.95;22.73;;;;;;;2.15;100.00;100334.97;5245538;28;20047;-79
2023/12/01 01:05:39;;;;;;;36.28;22.42;;;;;;;2.16;100.00;100328.91;5263345;28;20037;-78
2023/12/01 01:08:11;;;;;;;36.97;22.77;;;;;;;2.07;100.00;100334.59;5262380;28;20036;-77
2023/12/01 01:10:43;;;;;;;36.45;22.88;;;;;;;2.12;100.00;100342.91;5258412;28;20036;-78
2023/12/01 01:13:15;;;;;;;35.05;22.17;;;;;;;2.13;100.00;100349.75;5260729;28;20101;-78
2023/12/01 01:15:48;;;;;;;37.03;22.58;;;;;;;2.14;100.00;100343.66;5242429;28;20044;-78
2023/12/01 01:18:20;;;;;;;40.25;24.67;;;;;;;2.07;100.00;100333.75;5262038;28;20133;-77
2023/12/01 01:20:52;;;;;;;36.00;22.02;;;;;;;2.10;100.00;100352.50;5261498;28;20025;-78
2023/12/01 01:23:24;;;;;;;36.42;21.83;;;;;;;2.02;100.00;100339.19;5258780;28;20043;-77
2023/12/01 01:25:56;;;;;;;34.45;21.95;;;;;;;2.12;100.00;100349.81;5257393;28;20029;-78
2023/12/01 01:28:28;;;;;;;38.75;24.23;;;;;;;2.06;100.00;100353.59;5241959;28;20051;-78
2023/12/01 01:31:00;;;;;;;36.13;22.70;;;;;;;2.05;100.00;100351.94;5256669;28;20519;-77
2023/12/01 01:33:32;;;;;;;39.20;22.95;;;;;;;2.06;100.00;100361.34;5259991;28;20020;-79
2023/12/01 01:36:04;;;;;;;37.53;22.70;;;;;;;2.10;100.00;100359.41;5260828;28;20041;-80
2023/12/01 01:38:37;;;;;;;41.53;23.15;;;;;;;2.11;100.00;100355.91;5260201;28;20036;-78
2023/12/01 01:41:09;;;;;;;41.97;24.80;;;;;;;2.09;100.00;100350.00;5238548;28;20485;-76
2023/12/01 01:43:41;;;;;;;36.47;20.95;;;;;;;2.07;100.00;100360.41;5262836;28;20036;-76
2023/12/01 01:46:14;;;;;;;41.63;23.05;;;;;;;2.11;100.00;100355.91;5264479;28;20120;-78
2023/12/01 01:48:46;;;;;;;;;;;;;;;2.66;100.00;100356.09;5264228;28;20037;-76
2023/12/01 01:51:19;;;;;;;38.03;21.95;;;;;;;2.16;100.00;100356.50;5263558;28;19927;-76
2023/12/01 01:53:50;;;;;;;40.65;23.70;;;;;;;2.11;100.00;100353.31;5264187;28;20047;-78
2023/12/01 01:56:23;;;;;;;40.28;22.17;;;;;;;2.14;100.00;100372.06;5264632;28;20478;-78
2023/12/01 01:58:55;;;;;;;39.58;23.58;;;;;;;2.14;100.00;100368.66;5265998;28;20366;-78
2023/12/01 02:01:27;;;;;;;37.33;22.23;;;;;;;2.06;100.00;100370.84;5266115;28;20032;-78
2023/12/01 02:03:59;;;;;;;38.10;22.20;;;;;;;2.10;100.00;100367.16;5259603;28;20037;-78
2023/12/01 02:06:32;;;;;;;42.35;22.98;;;;;;;2.06;100.00;100361.34;5244565;28;20045;-78
2023/12/01 02:09:06;;;;;;;39.28;22.52;;;;;;;2.13;100.00;100367.84;5264404;28;20039;-78
2023/12/01 02:11:38;;;;;;;41.00;23.10;;;;;;;2.07;100.00;100369.94;5259783;28;20480;-78
2023/12/01 02:14:10;;;;;;;38.67;23.17;;;;;;;2.13;100.00;100379.94;5267833;28;20036;-78
2023/12/01 02:16:48;;;;;;;42.13;23.55;;;;;;;2.12;100.00;100381.69;5266705;28;20035;-78
2023/12/01 02:19:19;;;;;;;39.70;22.58;;;;;;;2.02;100.00;100367.63;5244493;28;20071;-78
2023/12/01 02:21:51;;;;;;;37.15;21.75;;;;;;;2.02;100.00;100380.53;5244533;28;20032;-78
2023/12/01 02:24:23;;;;;;;38.42;21.90;;;;;;;2.05;100.00;100384.69;5265654;28;20040;-78
2023/12/01 02:26:55;;;;;;;38.20;22.00;;;;;;;2.06;100.00;100388.94;5262428;28;20047;-79
2023/12/01 02:29:27;;;;;;;43.33;23.08;;;;;;;2.01;100.00;100383.19;5261731;28;20494;-78
2023/12/01 02:31:59;;;;;;;42.10;23.38;;;;;;;1.95;100.00;100390.38;5265389;28;20305;-78
2023/12/01 02:34:31;;;;;;;43.50;24.38;;;;;;;1.91;100.00;100394.03;5261096;28;20032;-79
2023/12/01 02:37:03;;;;;;;40.08;22.40;;;;;;;1.89;100.00;100389.88;5264509;28;20032;-81
2023/12/01 02:39:36;;;;;;;41.20;22.05;;;;;;;1.85;100.00;100389.22;5242191;28;20059;-78
2023/12/01 02:42:08;;;;;;;43.20;24.02;;;;;;;1.85;100.00;100389.22;5264006;28;20033;-77
2023/12/01 02:44:40;;;;;;;38.47;22.02;;;;;;;1.78;100.00;100389.63;5261368;28;20138;-81
2023/12/01 02:47:12;;;;;;;41.53;23.42;;;;;;;1.83;100.00;100385.06;5265637;28;20024;-78
2023/12/01 02:49:44;;;;;;;43.25;24.92;;;;;;;1.83;100.00;100383.31;5266687;28;20504;-80
2023/12/01 02:52:16;;;;;;;40.17;23.35;;;;;;;1.88;100.00;100390.81;5266196;28;20452;-77
2023/12/01 02:54:48;;;;;;;38.80;22.17;;;;;;;1.85;100.00;100385.78;5263435;28;20024;-77
2023/12/01 02:57:19;;;;;;;40.28;22.73;;;;;;;1.81;100.00;100382.56;5260419;28;20036;-79
2023/12/01 02:59:51;;;;;;;45.55;24.05;;;;;;;1.86;100.00;100388.31;5263369;28;20136;-78
2023/12/01 03:02:27;;;;;;;46.22;24.98;;;;;;;1.83;100.00;100390.25;5262504;28;20053;-79
2023/12/01 03:05:00;;;;;;;43.90;24.30;;;;;;;1.79;100.00;100384.41;5243849;28;21293;-78
2023/12/01 03:07:32;;;;;;;42.58;24.83;;;;;;;1.75;100.00;100374.34;5258594;28;20041;-78
2023/12/01 03:10:05;;;;;;;41.17;23.90;;;;;;;1.82;100.00;100378.22;5257864;28;20114;-80
2023/12/01 03:12:38;;;;;;;44.63;23.35;;;;;;;1.86;100.00;100382.31;5262904;28;20040;-81
2023/12/01 03:15:14;;;;;;;43.38;24.50;;;;;;;1.84;100.00;100378.97;5262935;28;20033;-78
2023/12/01 03:17:47;;;;;;;44.22;23.70;;;;;;;1.78;100.00;100377.59;5265124;28;20371;-78
2023/12/01 03:20:19;;;;;;;43.92;23.70;;;;;;;1.88;100.00;100391.63;5265978;28;20553;-79
2023/12/01 03:22:51;;;;;;;47.38;25.48;;;;;;;1.81;100.00;100382.56;5264618;28;20117;-78
2023/12/01 03:25:23;;;;;;;45.38;25.05;;;;;;;1.83;100.00;100392.81;5263417;28;20029;-78
2023/12/01 03:27:55;;;;;;;46.75;25.08;;;;;;;1.87;100.00;100399.47;5262212;28;20032;-77
2023/12/01 03:30:27;;;;;;;43.28;24.17;;;;;;;1.82;100.00;100394.56;5261076;28;20032;-78
2023/12/01 03:32:59;;;;;;;47.85;25.02;;;;;;;1.84;100.00;100392.72;5260219;28;20043;-78
2023/12/01 03:35:31;;;;;;;46.22;26.23;;;;;;;1.87;100.00;100397.72;5260231;28;20041;-77
2023/12/01 03:38:03;;;;;;;44.78;23.92;;;;;;;1.89;100.00;100397.63;5258974;28;20037;-77
2023/12/01 03:40:35;;;;;;;44.07;23.77;;;;;;;1.89;100.00;100398.44;5266860;28;20493;-77
2023/12/01 03:43:07;;;;;;;44.92;24.17;;;;;;;1.86;100.00;100393.47;5263351;28;20271;-78
2023/12/01 03:45:39;;;;;;;46.80;25.13;;;;;;;1.85;100.00;100394.38;5262184;28;20029;-77
2023/12/01 03:48:11;;;;;;;47.15;25.10;;;;;;;1.93;100.00;100401.69;5259313;28;20028;-78
2023/12/01 03:50:43;;;;;;;52.78;25.45;;;;;;;1.96;100.00;100401.53;5266746;28;20037;-78
2023/12/01 03:53:14;;;;;;;53.33;25.40;;;;;;;1.90;100.00;100394.16;5260801;28;20039;-78
2023/12/01 03:55:46;;;;;;;49.97;26.05;;;;;;;1.87;100.00;100399.47;5262605;28;20406;-78
2023/12/01 03:58:18;;;;;;;52.55;26.52;;;;;;;1.88;100.00;100408.88;5260336;28;20039;-78
2023/12/01 04:00:53;;;;;;;53.10;25.83;;;;;;;1.93;100.00;100402.56;5266095;28;20062;-78
2023/12/01 04:03:25;;;;;;;58.13;29.15;;;;;;;1.87;100.00;100412.38;5259883;28;20053;-78
2023/12/01 04:06:01;;;;;;;60.00;27.63;;;;;;;1.89;100.00;100410.53;5263259;28;20046;-78
2023/12/01 04:08:33;;;;;;;60.30;27.92;;;;;;;1.93;100.00;100422.38;5261708;28;20028;-78
2023/12/01 04:11:08;;;;;;;61.92;30.13;;;;;;;1.95;100.00;100426.53;5260011;28;20033;-78
2023/12/01 04:13:40;;;;;;;61.75;28.83;;;;;;;1.90;100.00;100407.88;5260900;28;20032;-77
2023/12/01 04:16:12;;;;;;;64.53;29.95;;;;;;;1.92;100.00;100431.88;5263284;28;20376;-78
2023/12/01 04:18:45;;;;;;;62.90;28.48;;;;;;;1.89;100.00;100434.63;5260477;28;20028;-78
2023/12/01 04:21:17;;;;;;;62.78;29.20;;;;;;;1.77;100.00;100437.06;5261887;28;20036;-77
2023/12/01 04:23:49;;;;;;;60.83;27.88;;;;;;;1.69;100.00;100438.28;5240923;28;20044;-78
2023/12/01 04:26:20;;;;;;;58.90;28.35;;;;;;;1.63;100.00;100442.94;5262173;28;20024;-78
2023/12/01 04:28:52;;;;;;;57.55;26.30;;;;;;;1.62;100.00;100446.47;5262070;28;20032;-78
2023/12/01 04:31:24;;;;;;;54.58;24.73;;;;;;;1.60;100.00;100445.72;5260056;28;20036;-78
2023/12/01 04:33:56;;;;;;;58.55;25.38;;;;;;;1.57;100.00;100446.72;5271716;28;20033;-78
2023/12/01 04:36:28;;;;;;;51.33;23.95;;;;;;;1.57;100.00;100457.03;5269833;28;20044;-77
2023/12/01 04:39:00;;;;;;;53.90;24.20;;;;;;;1.45;100.00;100453.38;5270721;28;20028;-78
2023/12/01 04:41:32;;;;;;;51.03;24.75;;;;;;;1.48;100.00;100459.25;5269496;28;20322;-78
2023/12/01 04:44:04;;;;;;;52.13;24.50;;;;;;;1.48;100.00;100460.13;5270825;28;20104;-78
2023/12/01 04:46:36;;;;;;;54.35;25.90;;;;;;;1.42;100.00;100444.94;5268304;28;20030;-77
2023/12/01 04:49:11;;;;;;;56.40;26.02;;;;;;;1.44;100.00;100446.56;5266457;28;20111;-78
2023/12/01 04:51:43;;;;;;;55.83;26.58;;;;;;;1.46;100.00;100444.69;5270131;28;20039;-77
2023/12/01 04:54:15;;;;;;;55.13;25.33;;;;;;;1.54;100.00;100461.53;5267527;28;20572;-78
2023/12/01 04:56:47;;;;;;;60.73;25.90;;;;;;;1.60;100.00;100469.78;5265521;28;20032;-77
2023/12/01 04:59:19;;;;;;;59.58;28.08;;;;;;;1.58;100.00;100481.09;5262301;28;20132;-78
2023/12/01 05:01:51;;;;;;;60.60;27.80;;;;;;;1.56;100.00;100473.47;5270119;28;20512;-78
2023/12/01 05:04:24;;;;;;;61.83;28.25;;;;;;;1.62;100.00;100470.53;5259770;28;20044;-78
2023/12/01 05:06:56;;;;;;;60.38;28.20;;;;;;;1.46;100.00;100460.19;5262766;28;20033;-78
2023/12/01 05:09:28;;;;;;;56.22;26.60;;;;;;;1.54;100.00;100477.84;5263837;28;20029;-77
2023/12/01 05:11:59;;;;;;;54.22;27.05;;;;;;;1.57;100.00;100467.38;5261834;28;20028;-77
2023/12/01 05:14:31;;;;;;;56.78;28.58;;;;;;;1.68;100.00;100485.69;5245630;28;20041;-78
2023/12/01 05:17:04;;;;;;;54.38;25.75;;;;;;;1.72;100.00;100483.78;5267434;28;20032;-78
2023/12/01 05:19:36;;;;;;;57.80;28.00;;;;;;;1.69;100.00;100489.94;5257223;28;20033;-78
2023/12/01 05:22:08;;;;;;;59.83;28.20;;;;;;;1.65;100.00;100479.88;5264819;28;20029;-77
2023/12/01 05:24:40;;;;;;;55.53;26.85;;;;;;;1.71;100.00;100487.31;5265995;28;20032;-77
2023/12/01 05:27:12;;;;;;;52.67;27.50;;;;;;;1.70;100.00;100498.53;5241767;28;20044;-77
2023/12/01 05:29:44;;;;;;;56.38;28.58;;;;;;;1.64;100.00;100491.13;5267930;28;20033;-77
2023/12/01 05:32:18;;;;;;;61.50;28.77;;;;;;;1.69;100.00;100487.34;5265294;28;20089;-77
2023/12/01 05:34:49;;;;;;;63.80;29.55;;;;;;;1.66;100.00;100484.94;5266123;28;20028;-78
2023/12/01 05:37:21;;;;;;;62.67;28.92;;;;;;;1.77;100.00;100506.78;5267703;28;20400;-78
2023/12/01 05:39:54;;;;;;;62.67;30.10;;;;;;;1.73;100.00;100490.63;5269765;28;20025;-77
2023/12/01 05:42:25;;;;;;;55.47;27.80;;;;;;;1.72;100.00;100494.13;5266137;28;20040;-78
2023/12/01 05:44:57;;;;;;;66.40;29.85;;;;;;;1.69;100.00;100496.88;5265418;28;20032;-78
2023/12/01 05:47:29;;;;;;;68.00;31.20;;;;;;;1.77;100.00;100506.78;5265729;28;20036;-77
2023/12/01 05:50:01;;;;;;;58.40;29.13;;;;;;;1.79;100.00;100516.13;5257472;28;20032;-77
2023/12/01 05:52:33;;;;;;;67.90;33.47;;;;;;;1.81;100.00;100519.44;5261970;28;20385;-77
2023/12/01 05:55:10;;;;;;;65.75;31.73;;;;;;;1.81;100.00;100516.03;5258081;28;20028;-77
2023/12/01 05:57:49;;;;;;;62.97;30.15;;;;;;;1.81;100.00;100518.63;5264333;28;20035;-78
2023/12/01 06:00:23;;;;;;;61.00;30.80;;;;;;;1.82;100.00;100520.28;5267853;28;20024;-77
2023/12/01 06:02:57;;;;;;;58.45;29.98;;;;;;;1.87;100.00;100520.88;5261154;28;20037;-78
2023/12/01 06:05:31;;;;;;;57.63;30.00;;;;;;;1.79;100.00;100529.03;5260327;28;20378;-77
2023/12/01 06:08:03;;;;;;;56.72;29.20;;;;;;;1.76;100.00;100526.63;5238786;28;20406;-78
2023/12/01 06:10:35;;;;;;;52.00;28.77;;;;;;;1.77;100.00;100530.84;5258904;28;20032;-78
2023/12/01 06:13:07;;;;;;;50.20;27.00;;;;;;;1.76;100.00;100524.03;5258666;28;20064;-78
2023/12/01 06:15:41;;;;;;;50.03;27.90;;;;;;;1.82;100.00;100522.84;5257316;28;20054;-78
2023/12/01 06:18:12;;;;;;;49.67;27.65;;;;;;;1.86;100.00;100517.47;5254106;28;20033;-78
2023/12/01 06:20:44;;;;;;;47.78;27.23;;;;;;;1.86;100.00;100522.63;5254644;28;20467;-77
2023/12/01 06:23:16;;;;;;;52.28;27.80;;;;;;;1.74;100.00;100501.78;5257715;28;20049;-77
2023/12/01 06:25:48;;;;;;;54.40;29.05;;;;;;;1.78;100.00;100516.19;5258200;28;20029;-78
2023/12/01 06:28:20;;;;;;;49.67;27.00;;;;;;;1.81;100.00;100523.78;5255396;28;20110;-78
2023/12/01 06:30:53;;;;;;;45.85;26.00;;;;;;;1.83;100.00;100524.53;5259584;28;20048;-77
2023/12/01 06:33:26;;;;;;;47.43;27.17;;;;;;;1.93;100.00;100531.72;5261958;28;20039;-78
2023/12/01 06:35:58;;;;;;;46.35;25.92;;;;;;;1.86;100.00;100532.97;5266799;28;20426;-79
2023/12/01 06:38:30;;;;;;;46.17;27.15;;;;;;;1.90;100.00;100534.47;5269846;28;20108;-80
2023/12/01 06:41:02;;;;;;;46.55;26.20;;;;;;;1.84;100.00;100542.53;5274672;28;20016;-78
2023/12/01 06:43:34;;;;;;;47.38;26.95;;;;;;;1.85;100.00;100551.94;5264004;28;20040;-78
2023/12/01 06:46:06;;;;;;;44.45;26.48;;;;;;;1.77;100.00;100540.34;5265633;28;20477;-78
2023/12/01 06:48:38;;;;;;;44.53;26.52;;;;;;;1.79;100.00;100541.13;5264056;28;20048;-77
2023/12/01 06:51:10;;;;;;;47.35;25.90;;;;;;;1.79;100.00;100543.72;5257971;28;20032;-77
2023/12/01 06:53:42;;;;;;;44.85;26.95;;;;;;;1.83;100.00;100545.22;5271483;28;20071;-78
2023/12/01 06:56:13;;;;;;;44.78;26.35;;;;;;;1.88;100.00;100549.19;5264776;28;20025;-78
2023/12/01 06:58:45;;;;;;;43.90;24.83;;;;;;;1.84;100.00;100547.69;5266050;28;20153;-78
2023/12/01 07:01:20;;;;;;;42.85;25.50;;;;;;;1.94;100.00;100548.06;5261442;28;20028;-78
2023/12/01 07:03:52;;;;;;;42.33;24.83;;;;;;;1.92;100.00;100555.88;5250012;28;20040;-77
2023/12/01 07:06:24;;;;;;;40.38;22.92;;;;;;;1.85;100.00;100553.69;5264290;28;20044;-78
2023/12/01 07:08:56;;;;;;;40.53;23.65;;;;;;;1.94;100.00;100566.13;5262231;28;20036;-80
2023/12/01 07:11:28;;;;;;;38.83;22.67;;;;;;;2.02;100.00;100566.56;5262878;28;20362;-79
2023/12/01 07:14:00;;;;;;;41.25;24.75;;;;;;;1.86;100.00;100557.97;5264660;28;20039;-79
2023/12/01 07:16:32;;;;;;;41.28;24.83;;;;;;;1.90;100.00;100556.88;5264775;28;20040;-78
2023/12/01 07:19:04;;;;;;;43.60;24.48;;;;;;;1.99;100.00;100574.47;5261766;28;20033;-81
2023/12/01 07:21:38;;;;;;;39.47;22.15;;;;;;;2.03;100.00;100570.78;5267051;28;20123;-80
2023/12/01 07:24:09;;;;;;;39.15;23.17;;;;;;;1.92;100.00;100565.38;5261912;28;20027;-80
2023/12/01 07:26:41;;;;;;;39.47;22.77;;;;;;;1.99;100.00;100571.06;5259730;28;20162;-82
2023/12/01 07:29:13;;;;;;;40.08;22.98;;;;;;;2.09;100.00;100567.91;5258748;28;20111;-79
2023/12/01 07:31:45;;;;;;;38.65;22.02;;;;;;;1.98;100.00;100559.06;5258524;28;20094;-80
2023/12/01 07:34:18;;;;;;;35.78;21.27;;;;;;;2.07;100.00;100571.47;5260529;28;20190;-78
2023/12/01 07:36:52;;;;;;;38.73;22.63;;;;;;;2.15;100.00;100575.28;5263336;28;20044;-81
2023/12/01 07:39:24;;;;;;;35.58;21.80;;;;;;;2.19;100.00;100568.22;5261878;28;20025;-80
2023/12/01 07:41:56;;;;;;;39.67;22.75;;;;;;;2.17;100.00;100570.06;5259066;28;20397;-78
2023/12/01 07:44:28;;;;;;;38.10;23.80;;;;;;;2.19;100.00;100566.47;5250279;28;20071;-79
2023/12/01 07:47:04;;;;;;;40.20;23.73;;;;;;;2.22;100.00;100564.63;5258768;28;20060;-81
2023/12/01 07:49:36;;;;;;;41.30;22.83;;;;;;;2.16;100.00;100566.66;5260177;28;20029;-78
2023/12/01 07:52:08;;;;;;;37.67;23.20;;;;;;;2.23;100.00;100574.06;5236752;28;20040;-82
2023/12/01 07:54:40;;;;;;;39.33;23.25;;;;;;;2.26;100.00;100572.13;5256829;28;20025;-81
2023/12/01 07:57:12;;;;;;;40.92;22.90;;;;;;;2.27;100.00;100572.97;5240402;28;20040;-79
2023/12/01 07:59:44;;;;;;;39.70;23.85;;;;;;;2.32;100.00;100573.56;5260488;28;20032;-78
2023/12/01 08:02:16;;;;;;;41.60;22.98;;;;;;;2.34;100.00;100576.88;5257277;28;20494;-78
2023/12/01 08:04:48;;;;;;;42.25;24.58;;;;;;;2.34;100.00;100571.72;5259764;28;20382;-78
2023/12/01 08:07:19;;;;;;;39.63;22.65;;;;;;;2.34;100.00;100580.31;5263357;28;20044;-78
2023/12/01 08:09:53;;;;;;;38.15;23.33;;;;;;;2.31;100.00;100570.16;5256387;28;20043;-78
2023/12/01 08:12:25;;;;;;;36.95;23.35;;;;;;;2.36;100.00;100570.72;5256266;28;20040;-78
2023/12/01 08:14:58;;;;;;;41.72;22.88;;;;;;;2.32;100.00;100566.63;5236675;28;20033;-78
2023/12/01 08:17:30;;;;;;;36.15;21.48;;;;;;;2.33;100.00;100565.72;5258654;28;20029;-78
2023/12/01 08:20:05;;;;;;;41.72;23.35;;;;;;;2.32;100.00;100569.22;5258842;28;20106;-78
2023/12/01 08:22:37;;;;;;;40.28;23.25;;;;;;;2.38;100.00;100583.56;5258629;28;20044;-78
2023/12/01 08:25:12;;;;;;;37.95;23.17;;;;;;;2.42;100.00;100580.75;5256845;28;20041;-78
2023/12/01 08:27:44;;;;;;;37.88;23.48;;;;;;;2.42;100.00;100587.63;5260598;28;20024;-78
2023/12/01 08:30:16;;;;;;;36.97;22.02;;;;;;;2.33;100.00;100585.56;5257782;28;20036;-78
2023/12/01 08:32:48;;;;;;;35.85;21.63;;;;;;;2.40;100.00;100592.91;5260899;28;20021;-78
2023/12/01 08:35:21;;;;;;;38.90;23.48;;;;;;;2.42;100.00;100597.97;5256859;28;20032;-78
2023/12/01 08:37:53;;;;;;;37.10;22.70;;;;;;;2.41;100.00;100593.72;5240725;28;20052;-78
2023/12/01 08:40:25;;;;;;;37.83;22.20;;;;;;;2.46;100.00;100602.06;5257493;28;20375;-78
2023/12/01 08:42:57;;;;;;;38.65;22.35;;;;;;;2.44;100.00;100589.22;5259821;28;20031;-78
2023/12/01 08:45:29;;;;;;;37.88;23.30;;;;;;;2.52;100.00;100606.06;5254150;28;20136;-78
2023/12/01 08:48:01;;;;;;;38.17;22.13;;;;;;;2.51;100.00;100607.00;5258741;28;20539;-78
2023/12/01 08:50:33;;;;;;;40.67;22.73;;;;;;;2.51;100.00;100609.59;5259111;28;20036;-78
2023/12/01 08:53:05;;;;;;;38.00;23.27;;;;;;;2.54;100.00;100606.81;5257700;28;20028;-77
2023/12/01 08:55:37;;;;;;;40.13;24.33;;;;;;;2.60;100.00;100607.31;5250450;28;20058;-78
2023/12/01 08:58:10;;;;;;;39.17;22.92;;;;;;;2.57;100.00;100597.13;5260387;28;20283;-78
2023/12/01 09:00:42;;;;;;;37.58;22.05;;;;;;;2.56;100.00;100603.22;5255304;28;20036;-78
2023/12/01 09:03:14;;;;;;;37.13;22.70;;;;;;;2.63;100.00;100607.16;5252585;28;20566;-78
2023/12/01 09:05:46;;;;;;;35.72;20.52;;;;;;;2.61;100.00;100597.78;5253942;28;20098;-78
2023/12/01 09:08:18;;;;;;;35.97;22.40;;;;;;;2.63;100.00;100612.31;5255744;28;20040;-78
2023/12/01 09:10:49;;;;;;;32.63;20.30;;;;;;;2.59;100.00;100612.59;5256286;28;20033;-78
2023/12/01 09:13:21;;;;;;;33.75;20.73;;;;;;;2.68;100.00;100618.06;5258435;28;20473;-78
2023/12/01 09:15:53;;;;;;;34.88;21.05;;;;;;;2.60;100.00;100604.72;5257575;28;20334;-78
2023/12/01 09:18:29;;;;;;;30.95;18.15;;;;;;;2.65;100.00;100619.97;5255647;28;20040;-78
2023/12/01 09:21:01;;;;;;;28.48;17.63;;;;;;;2.67;100.00;100625.91;5253064;28;20027;-78
2023/12/01 09:23:33;;;;;;;28.88;15.95;;;;;;;2.70;100.00;100632.69;5255550;28;20389;-78
2023/12/01 09:26:05;;;;;;;26.77;15.30;;;;;;;2.66;100.00;100632.00;5255313;28;20043;-77
2023/12/01 09:28:37;;;;;;;28.02;17.50;;;;;;;2.70;100.00;100632.69;5257421;28;20120;-78
2023/12/01 09:31:10;;;;;;;23.02;14.68;;;;;;;2.69;100.00;100629.25;5255434;28;20041;-77
2023/12/01 09:33:42;;;;;;;;;;;;;;;3.24;100.00;100639.06;5255963;28;20037;-78
2023/12/01 09:36:17;;;;;;;22.52;14.52;;;;;;;2.69;100.00;100637.03;5256329;28;19916;-78
2023/12/01 09:38:49;;;;;;;25.23;15.60;;;;;;;2.70;100.00;100640.44;5258905;28;20029;-78
2023/12/01 09:41:21;;;;;;;23.42;15.27;;;;;;;2.72;100.00;100641.19;5257995;28;20033;-77
2023/12/01 09:43:54;;;;;;;26.42;15.55;;;;;;;2.71;100.00;100639.50;5257618;28;20031;-77
2023/12/01 09:46:35;;;;;;;26.60;16.08;;;;;;;2.85;100.00;100648.19;5255199;28;20039;-77
2023/12/01 09:49:07;;;;;;;22.52;15.07;;;;;;;2.69;100.00;100644.78;5256860;28;20043;-77
2023/12/01 09:51:39;;;;;;;24.40;14.98;;;;;;;2.68;100.00;100658.63;5253997;28;20025;-78
2023/12/01 09:54:11;;;;;;;26.50;15.82;;;;;;;2.71;100.00;100657.63;5257362;28;20035;-79
2023/12/01 09:56:43;;;;;;;25.55;15.90;;;;;;;2.71;100.00;100653.28;5255658;28;20392;-79
2023/12/01 09:59:16;;;;;;;23.75;16.45;;;;;;;2.72;100.00;100664.47;5257836;28;20036;-78
2023/12/01 10:01:48;;;;;;;22.87;15.07;;;;;;;2.78;100.00;100661.53;5259289;28;20413;-80
2023/12/01 10:04:20;;;;;;;25.50;15.73;;;;;;;2.77;100.00;100654.72;5256651;28;20330;-79
2023/12/01 10:06:54;;;;;;;25.20;16.53;;;;;;;2.75;100.00;100649.59;5253840;28;20035;-81
2023/12/01 10:09:28;;;;;;;;;;;;;;;3.31;100.00;100648.16;5259854;28;20043;-80
2023/12/01 10:12:10;;;;;;;21.58;13.07;;;;;;;3.01;100.00;100655.09;5258188;28;19931;-78
2023/12/01 10:14:42;;;;;;;19.30;13.98;;;;;;;2.93;100.00;100658.94;5264148;28;20041;-82
2023/12/01 10:17:14;;;;;;;24.73;15.32;;;;;;;2.93;100.00;100656.34;5250664;28;20486;-79
2023/12/01 10:19:48;;;;;;;23.83;14.73;;;;;;;2.95;100.00;100660.59;5264771;28;20041;-78
2023/12/01 10:22:19;;;;;;;23.80;14.57;;;;;;;2.93;100.00;100652.94;5255947;28;20025;-79
2023/12/01 10:24:53;;;;;;;21.55;14.23;;;;;;;2.89;100.00;100657.44;5263782;28;20043;-78
2023/12/01 10:27:25;;;;;;;22.10;14.95;;;;;;;2.88;100.00;100648.00;5257703;28;20032;-78
2023/12/01 10:30:24;;;;;;;22.27;14.55;;;;;;;3.25;100.00;100652.84;5243494;28;20054;-78
2023/12/01 10:32:56;;;;;;;22.27;14.05;;;;;;;3.00;100.00;100648.25;5258354;28;20052;-78
2023/12/01 10:35:28;;;;;;;21.38;13.98;;;;;;;3.00;100.00;100659.44;5257134;28;20025;-78
2023/12/01 10:38:00;;;;;;;23.75;14.95;;;;;;;3.03;100.00;100648.06;5259679;28;20462;-78
2023/12/01 10:40:32;;;;;;;21.90;14.45;;;;;;;3.03;100.00;100656.69;5259771;28;20033;-80
2023/12/01 10:43:04;;;;;;;21.60;14.23;;;;;;;3.01;100.00;100653.31;5258146;28;20107;-78
2023/12/01 10:45:37;;;;;;;23.02;15.15;;;;;;;2.98;100.00;100645.72;5256850;28;20044;-79
2023/12/01 10:48:10;;;;;;;26.10;14.75;;;;;;;3.03;100.00;100654.09;5259930;28;20032;-78
2023/12/01 10:50:42;;;;;;;22.43;14.90;;;;;;;3.04;100.00;100645.41;5256253;28;20032;-78
2023/12/01 10:53:15;;;;;;;20.23;14.35;;;;;;;2.98;100.00;100658.66;5258565;28;20040;-78
2023/12/01 10:55:47;;;;;;;23.45;14.55;;;;;;;2.96;100.00;100639.81;5254493;28;20041;-78
2023/12/01 10:58:22;;;;;;;22.00;14.80;;;;;;;3.05;100.00;100644.47;5256658;28;20394;-78
2023/12/01 11:00:57;;;;;;;22.63;14.27;;;;;;;3.03;100.00;100640.28;5256943;28;20025;-78
2023/12/01 11:03:31;;;;;;;22.58;13.93;;;;;;;3.04;100.00;100637.63;5258793;28;20048;-78
2023/12/01 11:06:36;;;;;;;20.25;13.57;;;;;;;3.27;100.00;100645.84;5245010;28;20040;-79
2023/12/01 11:09:24;;;;;;;20.00;12.63;;;;;;;3.24;100.00;100643.41;5248028;28;20075;-78
2023/12/01 11:12:17;;;;;;;20.95;13.73;;;;;;;3.29;100.00;100646.56;5259659;28;20028;-78
2023/12/01 11:14:51;;;;;;;21.58;13.20;;;;;;;3.14;100.00;100649.13;5246586;28;20040;-79
2023/12/01 11:17:23;;;;;;;20.25;13.23;;;;;;;3.05;100.00;100641.88;5259283;28;20052;-79
2023/12/01 11:19:56;;;;;;;19.27;13.73;;;;;;;3.05;100.00;100639.28;5256165;28;20036;-78
2023/12/01 11:22:32;;;;;;;18.98;13.13;;;;;;;3.13;100.00;100649.22;5258032;28;20060;-79
2023/12/01 11:25:05;;;;;;;20.63;13.25;;;;;;;3.01;100.00;100648.16;5258093;28;20036;-78
2023/12/01 11:27:37;;;;;;;20.33;13.57;;;;;;;3.02;100.00;100641.22;5260745;28;20028;-79
2023/12/01 11:30:12;;;;;;;19.15;13.40;;;;;;;2.97;100.00;100645.81;5255805;28;20047;-79
2023/12/01 11:32:44;;;;;;;17.52;12.07;;;;;;;2.97;100.00;100648.41;5257551;28;20041;-78
2023/12/01 11:35:16;;;;;;;18.42;12.95;;;;;;;2.93;100.00;100647.75;5254515;28;20036;-78